Time;durP1;ratioP1;P1;durP2;ratioP2;P2;SDS_P1;SDS_P2;PMS_P1;PMS_P2;Temp;Humidity;BMP_temperature;BMP_pressure;BME280_temperature;BME280_humidity;BME280_pressure;Samples;Min_cycle;Max_cycle;Signal;HPM_P1;HPM_P2
2022/11/04 00:01:33;;;;;;;0.40;0.40;;;22.30;63.60;;;22.45;46.00;93940.56;5046137;28;20194;-77
2022/11/04 00:04:00;;;;;;;0.50;0.50;;;22.30;63.60;;;22.48;45.87;93947.22;5079590;28;20278;-77
2022/11/04 00:06:28;;;;;;;0.40;0.40;;;22.30;63.60;;;22.50;45.83;93953.06;5079545;28;20189;-77
2022/11/04 00:08:57;;;;;;;0.30;0.30;;;22.30;63.60;;;22.48;45.72;93947.97;5096251;28;20236;-77
2022/11/04 00:14:13;;;;;;;0.30;0.30;;;22.30;63.60;;;22.46;45.92;93944.03;5082097;28;20193;-77
2022/11/04 00:19:27;;;;;;;0.32;0.32;;;22.30;63.60;;;22.36;45.87;93921.72;5082027;28;20186;-77
2022/11/04 00:29:59;;;;;;;0.40;0.40;;;22.20;63.50;;;22.44;45.95;93940.88;5096041;28;20171;-77
2022/11/04 00:35:13;;;;;;;0.40;0.40;;;22.20;63.50;;;22.40;46.02;93905.91;5064767;28;20201;-77
2022/11/04 00:37:42;;;;;;;0.50;0.50;;;22.30;63.50;;;22.41;46.01;93926.22;5062160;28;20268;-77
2022/11/04 00:40:13;;;;;;;0.38;0.38;;;22.20;63.50;;;22.45;45.78;93926.41;5062244;28;20287;-77
2022/11/04 00:42:44;;;;;;;0.50;0.50;;;22.20;63.50;;;22.39;45.88;93915.78;5095645;28;20215;-77
2022/11/04 00:45:11;;;;;;;0.40;0.40;;;22.20;63.50;;;22.40;45.89;93916.59;5078702;28;20202;-77
2022/11/04 00:47:39;;;;;;;0.40;0.40;;;22.20;63.50;;;22.44;45.81;93914.94;5062009;28;20190;-77
2022/11/04 00:50:07;;;;;;;0.40;0.40;;;22.20;63.50;;;22.44;45.62;93909.59;5078375;28;20240;-77
2022/11/04 00:52:34;;;;;;;0.30;0.30;;;22.20;63.50;;;22.41;46.24;93909.38;5078779;28;20190;-76
2022/11/04 00:55:02;;;;;;;0.40;0.40;;;22.20;63.50;;;22.41;46.17;93915.53;5078567;28;20202;-77
2022/11/04 00:57:29;;;;;;;0.40;0.40;;;22.20;63.50;;;22.45;45.86;93913.03;5078448;28;20618;-77
2022/11/04 00:59:56;;;;;;;0.30;0.30;;;22.20;63.50;;;22.39;45.86;93901.66;5078546;28;20588;-77
2022/11/04 01:02:25;;;;;;;0.40;0.40;;;22.20;63.50;;;22.40;46.08;93900.56;5078086;28;20260;-77
2022/11/04 01:04:52;;;;;;;0.45;0.45;;;22.20;63.50;;;22.43;45.85;93904.53;5078204;28;20681;-77
2022/11/04 01:07:20;;;;;;;0.40;0.40;;;22.20;63.50;;;22.45;45.89;93921.06;5078073;28;20211;-77
2022/11/04 01:09:48;;;;;;;0.40;0.40;;;22.20;63.50;;;22.44;45.93;93914.94;5078389;28;20249;-77
2022/11/04 01:12:16;;;;;;;0.40;0.40;;;22.20;63.50;;;22.43;45.87;93913.34;5077823;28;20202;-77
2022/11/04 01:14:43;;;;;;;0.40;0.40;;;22.20;63.50;;;22.39;45.96;93907.78;5061529;28;20288;-77
2022/11/04 01:17:10;;;;;;;0.32;0.32;;;22.20;63.50;;;22.39;46.12;93901.66;5078067;28;20611;-77
2022/11/04 01:19:37;;;;;;;0.40;0.40;;;22.20;63.50;;;22.40;45.93;93903.25;5061362;28;20205;-77
2022/11/04 01:22:05;;;;;;;0.30;0.30;;;22.20;63.50;;;22.37;46.26;93896.59;5078188;28;20233;-77
2022/11/04 01:24:32;;;;;;;0.50;0.50;;;22.20;63.50;;;22.44;45.80;93909.59;5095525;28;20194;-77
2022/11/04 01:26:59;;;;;;;0.40;0.40;;;22.20;63.50;;;22.44;45.84;93898.91;5077807;28;20650;-77
2022/11/04 01:29:27;;;;;;;0.40;0.40;;;22.20;63.50;;;22.41;45.67;93898.69;5061277;28;20198;-77
2022/11/04 01:31:54;;;;;;;0.30;0.30;;;22.20;63.50;;;22.32;46.04;93883.28;5077557;28;20229;-77
2022/11/04 01:34:21;;;;;;;0.47;0.47;;;22.20;63.50;;;22.43;45.92;93893.84;5078263;28;20225;-77
2022/11/04 01:36:48;;;;;;;0.40;0.40;;;22.20;63.50;;;22.38;45.72;93892.84;5044448;28;20621;-77
2022/11/04 01:39:16;;;;;;;0.40;0.40;;;22.20;63.40;;;22.38;46.25;93886.72;5077855;28;20199;-77
2022/11/04 01:41:43;;;;;;;0.50;0.50;;;22.20;63.50;;;22.42;45.74;93894.94;5077410;28;20267;-77
2022/11/04 01:44:41;;;;;;;0.40;0.40;;;22.20;63.40;;;22.41;45.63;93898.69;5060938;28;20213;-77
2022/11/04 01:47:19;;;;;;;0.40;0.40;;;22.20;63.50;;;22.35;45.63;93880.03;5078133;28;20492;-77
2022/11/04 01:49:58;;;;;;;0.40;0.40;;;22.20;63.50;;;22.33;45.88;93878.75;5061007;28;20225;-77
2022/11/04 01:52:36;;;;;;;0.40;0.40;;;22.20;63.40;;;22.36;45.99;93881.63;5077354;28;20624;-77
2022/11/04 01:55:13;;;;;;;0.47;0.47;;;22.20;63.50;;;22.34;46.10;93878.44;5077731;28;20253;-77
2022/11/04 01:57:44;;;;;;;0.40;0.40;;;22.20;63.50;;;22.35;45.71;93881.91;5060385;28;20498;-77
2022/11/04 02:00:12;;;;;;;0.40;0.40;;;22.20;63.50;;;22.40;46.26;93881.88;5044283;28;20194;-77
2022/11/04 02:02:53;;;;;;;0.40;0.40;;;22.20;63.50;;;22.35;46.10;93880.03;5077100;28;20651;-77
2022/11/04 02:05:22;;;;;;;0.40;0.40;;;22.20;63.50;;;22.33;46.10;93868.06;5077249;28;20228;-77
2022/11/04 02:07:54;;;;;;;0.35;0.35;;;22.20;63.50;;;22.31;45.73;93868.34;5060954;28;20267;-77
2022/11/04 02:10:26;;;;;;;0.40;0.40;;;22.20;63.50;;;22.38;45.71;93873.34;5077483;28;20183;-77
2022/11/04 02:12:56;;;;;;;0.40;0.40;;;22.20;63.40;;;22.37;46.01;93869.88;5077044;28;20226;-77
2022/11/04 02:15:35;;;;;;;0.40;0.40;;;22.20;63.50;;;22.36;45.77;93868.28;5077171;28;20222;-77
2022/11/04 02:18:46;;;;;;;0.40;0.40;;;22.20;63.50;;;22.33;45.92;93868.06;5077356;28;20521;-77
2022/11/04 02:21:31;;;;;;;0.40;0.40;;;22.20;63.50;;;22.34;45.65;93867.75;5093881;28;20676;-77
2022/11/04 02:25:05;;;;;;;0.40;0.40;;;22.20;63.40;;;22.29;46.20;93853.69;5077145;28;20270;-77
2022/11/04 02:27:44;;;;;;;0.50;0.50;;;22.20;63.40;;;22.25;46.08;93856.13;5089299;28;20221;-77
2022/11/04 02:30:16;;;;;;;0.30;0.30;;;22.20;63.50;;;22.29;46.04;93862.50;5077250;28;20213;-77
2022/11/04 02:33:20;;;;;;;0.30;0.30;;;22.10;63.40;;;22.26;46.09;93863.06;5077353;28;20204;-77
2022/11/04 02:35:59;;;;;;;0.50;0.50;;;22.20;63.50;;;22.28;45.81;93860.91;5061007;28;20523;-77
2022/11/04 02:38:51;;;;;;;0.40;0.40;;;22.10;63.40;;;22.26;45.74;93865.75;5093921;28;20233;-77
2022/11/04 02:41:39;;;;;;;0.40;0.40;;;22.10;63.40;;;22.28;45.79;93857.47;5077296;28;20201;-77
2022/11/04 02:44:54;;;;;;;0.40;0.40;;;22.10;63.50;;;22.18;45.70;93853.03;5060322;28;20219;-77
2022/11/04 02:47:25;;;;;;;0.40;0.40;;;22.10;63.40;;;22.26;46.09;93854.28;5032968;28;20297;-78
2022/11/04 02:50:05;;;;;;;0.40;0.40;;;22.10;63.40;;;22.22;46.17;93840.72;5017348;28;20184;-78
2022/11/04 02:53:10;;;;;;;0.40;0.40;;;22.10;63.40;;;22.27;45.79;93850.53;5047272;28;20199;-78
2022/11/04 02:55:44;;;;;;;0.30;0.30;;;22.10;63.40;;;22.25;45.99;93834.00;5092333;28;20216;-77
2022/11/04 02:58:28;;;;;;;0.40;0.40;;;22.10;63.40;;;22.21;46.03;93826.56;5060934;28;20635;-77
2022/11/04 03:00:58;;;;;;;0.43;0.43;;;22.10;63.40;;;22.20;46.09;93808.16;5044211;28;20229;-77
2022/11/04 03:03:33;;;;;;;0.40;0.40;;;22.10;63.40;;;22.26;45.76;93820.34;5043890;28;20519;-77
2022/11/04 03:06:02;;;;;;;0.32;0.32;;;22.10;63.50;;;22.26;45.83;93815.00;5077562;28;20567;-77
2022/11/04 03:08:44;;;;;;;0.40;0.40;;;22.10;63.40;;;22.25;46.10;93818.75;5078656;28;20204;-77
2022/11/04 03:11:24;;;;;;;0.40;0.40;;;22.10;63.40;;;22.21;45.99;93818.53;5064965;28;20195;-77
2022/11/04 03:14:07;;;;;;;0.40;0.40;;;22.10;63.40;;;22.28;45.68;93834.22;5080889;28;20174;-77
2022/11/04 03:16:45;;;;;;;0.40;0.40;;;22.10;63.40;;;22.27;46.07;93864.66;5064040;28;20194;-77
2022/11/04 03:19:53;;;;;;;0.32;0.32;;;22.10;63.40;;;22.23;45.76;93844.97;5080858;28;20670;-77
2022/11/04 03:22:26;;;;;;;0.50;0.50;;;22.10;63.40;;;22.15;45.99;93835.72;5081024;28;20229;-78
2022/11/04 03:24:53;;;;;;;0.40;0.40;;;22.10;63.40;;;22.23;45.76;93848.44;5047345;28;20227;-77
2022/11/04 03:27:29;;;;;;;0.40;0.40;;;22.10;63.40;;;22.25;45.92;93839.34;5063842;28;20731;-77
2022/11/04 03:30:11;;;;;;;0.40;0.40;;;22.10;63.40;;;22.23;46.19;93834.28;5047502;28;20241;-77
2022/11/04 03:32:58;;;;;;;0.40;0.40;;;22.00;63.30;;;22.24;46.14;93835.88;5080797;28;20235;-78
2022/11/04 03:35:27;;;;;;;0.50;0.50;;;22.10;63.50;;;22.24;45.78;93841.22;5063971;28;20293;-78
2022/11/04 03:37:54;;;;;;;0.40;0.40;;;22.10;63.50;;;22.25;45.78;93848.13;5080554;28;20210;-77
2022/11/04 03:40:22;;;;;;;0.50;0.50;;;22.10;63.50;;;22.23;45.95;93845.75;5046964;28;20211;-78
2022/11/04 03:43:30;;;;;;;0.40;0.40;;;22.00;63.40;;;22.22;45.77;93854.06;5080391;28;20196;-78
2022/11/04 03:45:57;;;;;;;0.30;0.30;;;22.00;63.40;;;22.25;46.03;93856.13;5071645;28;20659;-78
2022/11/04 03:48:24;;;;;;;0.40;0.40;;;22.10;63.50;;;22.27;46.32;93869.22;5080312;28;20201;-78
2022/11/04 03:50:52;;;;;;;0.40;0.40;;;22.00;63.40;;;22.18;46.24;93858.38;5080240;28;20521;-77
2022/11/04 03:53:23;;;;;;;0.40;0.40;;;22.00;63.40;;;22.25;45.93;93877.50;5046579;28;20210;-77
2022/11/04 03:55:56;;;;;;;0.40;0.40;;;22.00;63.40;;;22.21;45.70;93884.53;5079406;28;20202;-77
2022/11/04 03:58:51;;;;;;;0.47;0.47;;;22.00;63.40;;;22.24;45.80;93891.97;5096561;28;20210;-77
2022/11/04 04:01:33;;;;;;;0.40;0.40;;;22.00;63.50;;;22.22;45.90;93881.56;5079627;28;20673;-78
2022/11/04 04:04:27;;;;;;;0.45;0.45;;;22.00;63.30;;;22.18;45.61;93880.56;5097579;28;20221;-77
2022/11/04 04:07:35;;;;;;;0.40;0.40;;;22.00;63.40;;;22.19;46.12;93884.81;5096411;28;20344;-77
2022/11/04 04:10:40;;;;;;;0.50;0.50;;;22.00;63.30;;;22.19;46.01;93892.03;5079691;28;20192;-78
2022/11/04 04:13:36;;;;;;;0.40;0.40;;;22.00;63.40;;;22.13;46.03;93883.31;5081363;28;20536;-78
2022/11/04 04:16:11;;;;;;;0.40;0.40;;;22.00;63.30;;;22.19;45.91;93889.34;5046427;28;20199;-78
2022/11/04 04:18:54;;;;;;;0.40;0.40;;;22.00;63.40;;;22.16;45.93;93880.06;5063140;28;20297;-77
2022/11/04 04:21:50;;;;;;;0.40;0.40;;;22.00;63.30;;;22.16;46.14;93890.72;5063191;28;20226;-77
2022/11/04 04:29:53;;;;;;;0.40;0.40;;;22.00;63.40;;;22.13;45.85;93885.19;5095881;28;20186;-78
2022/11/04 04:32:23;;;;;;;0.30;0.30;;;22.00;63.70;;;22.13;46.04;93880.66;5062775;28;20203;-78
2022/11/04 04:35:40;;;;;;;0.40;0.40;;;22.00;63.40;;;22.17;45.72;93886.19;5046121;28;20391;-77
2022/11/04 04:37:41;;;;;;;0.40;0.40;;;22.00;63.40;;;22.17;45.93;93889.66;5065547;28;20184;-78
2022/11/04 04:45:51;;;;;;;0.40;0.40;;;22.00;63.40;;;22.14;45.67;93889.44;5071858;28;20306;-78
2022/11/04 04:48:19;;;;;;;0.50;0.50;;;22.00;63.40;;;22.14;45.64;93889.44;5062074;28;20300;-78
2022/11/04 04:50:50;;;;;;;0.40;0.40;;;22.00;63.40;;;22.13;45.68;93888.66;5062490;28;20190;-78
2022/11/04 04:53:17;;;;;;;0.40;0.40;;;22.00;63.40;;;22.08;45.89;93880.69;5078837;28;20221;-78
2022/11/04 04:55:44;;;;;;;0.40;0.40;;;22.00;63.40;;;22.13;45.74;93883.31;5062395;28;20189;-78
2022/11/04 04:58:11;;;;;;;0.40;0.40;;;22.00;63.40;;;22.14;45.85;93884.09;5078908;28;20229;-78
2022/11/04 05:00:39;;;;;;;0.40;0.40;;;22.00;63.40;;;22.16;45.91;93885.38;5078687;28;20531;-78
2022/11/04 05:03:06;;;;;;;0.30;0.30;;;22.00;63.40;;;22.19;45.69;93897.38;5078723;28;20198;-77
2022/11/04 05:05:34;;;;;;;0.40;0.40;;;22.00;63.40;;;22.11;46.04;93882.03;5078841;28;20301;-77
2022/11/04 05:08:08;;;;;;;0.40;0.40;;;22.00;63.40;;;22.18;45.95;93893.91;5061716;28;20197;-77
2022/11/04 05:10:35;;;;;;;0.40;0.40;;;22.00;63.40;;;22.17;45.69;93896.88;5078709;28;20178;-78
2022/11/04 05:15:48;;;;;;;0.35;0.35;;;22.00;63.40;;;22.14;45.65;93890.25;5095447;28;20194;-78
2022/11/04 05:18:16;;;;;;;0.40;0.40;;;22.00;63.40;;;22.18;45.87;93893.09;5061801;28;20631;-77
2022/11/04 05:20:43;;;;;;;0.50;0.50;;;22.00;63.30;;;22.20;45.81;93902.44;5078328;28;20651;-77
2022/11/04 05:23:12;;;;;;;0.40;0.40;;;22.00;63.40;;;22.19;45.75;93898.19;5061397;28;20628;-77
2022/11/04 05:25:43;;;;;;;0.30;0.30;;;22.00;63.40;;;22.18;45.92;93895.78;5078377;28;20240;-77
2022/11/04 05:28:10;;;;;;;0.40;0.40;;;22.00;63.30;;;22.17;45.83;93904.91;5078050;28;20629;-77
2022/11/04 05:30:38;;;;;;;0.50;0.50;;;22.00;63.40;;;22.15;46.04;93888.38;5078057;28;20217;-78
2022/11/04 05:33:06;;;;;;;0.40;0.40;;;22.00;63.30;;;22.17;45.66;93900.34;5060875;28;20645;-77
2022/11/04 05:35:34;;;;;;;0.50;0.50;;;22.00;63.40;;;22.18;45.93;93906.47;5078520;28;20190;-77
2022/11/04 05:38:01;;;;;;;0.40;0.40;;;22.00;63.30;;;22.15;45.75;93901.72;5061463;28;20590;-77
2022/11/04 05:40:29;;;;;;;0.40;0.40;;;22.00;63.30;;;22.20;46.08;93909.66;5077972;28;20239;-77
2022/11/04 05:43:00;;;;;;;0.30;0.30;;;22.00;63.30;;;22.14;45.93;93897.44;5077759;28;20225;-77
2022/11/04 05:45:28;;;;;;;0.32;0.32;;;22.00;63.30;;;22.19;45.81;93908.88;5094416;28;20207;-77
2022/11/04 05:48:00;;;;;;;0.40;0.40;;;22.00;63.30;;;22.13;45.48;93896.66;5094708;28;20526;-77
2022/11/04 05:50:29;;;;;;;0.40;0.40;;;22.00;63.40;;;22.13;45.90;93903.88;5061334;28;20204;-77
2022/11/04 05:52:59;;;;;;;0.38;0.38;;;22.00;63.40;;;22.17;45.69;93910.25;5077642;28;20624;-78
2022/11/04 05:55:27;;;;;;;0.38;0.38;;;22.00;63.30;;;22.15;46.08;93902.50;5044922;28;20670;-78
2022/11/04 05:57:56;;;;;;;0.40;0.40;;;22.00;63.40;;;22.06;45.74;93889.00;5061507;28;20185;-78
2022/11/04 06:00:26;;;;;;;0.40;0.40;;;22.00;63.40;;;22.18;45.47;93917.16;5044443;28;20193;-78
2022/11/04 06:02:57;;;;;;;0.40;0.40;;;22.00;63.30;;;22.17;45.87;93924.38;5077709;28;20194;-78
2022/11/04 06:05:27;;;;;;;0.30;0.30;;;22.00;63.40;;;22.15;46.12;93921.19;5045191;28;20205;-78
2022/11/04 06:07:55;;;;;;;0.40;0.40;;;22.00;63.40;;;22.18;45.93;93917.16;5077844;28;20300;-78
2022/11/04 06:10:24;;;;;;;0.43;0.43;;;22.00;63.40;;;22.12;45.77;93912.97;5095002;28;20205;-78
2022/11/04 06:12:51;;;;;;;0.40;0.40;;;22.00;63.40;;;22.10;45.85;93909.81;5061134;28;20364;-78
2022/11/04 06:15:18;;;;;;;0.40;0.40;;;22.00;63.30;;;22.14;45.70;93913.47;5077425;28;20205;-78
2022/11/04 06:17:46;;;;;;;0.43;0.43;;;22.00;63.40;;;22.17;46.05;93920.94;5060798;28;20219;-78
2022/11/04 06:20:13;;;;;;;0.40;0.40;;;22.00;63.40;;;22.12;45.80;93911.09;5077590;28;20197;-78
2022/11/04 06:22:40;;;;;;;0.50;0.50;;;22.00;63.30;;;22.13;45.59;93920.72;5077439;28;20275;-78
2022/11/04 06:25:08;;;;;;;0.40;0.40;;;21.90;63.30;;;22.16;45.88;93932.69;5060892;28;20212;-78
2022/11/04 06:27:35;;;;;;;0.40;0.40;;;22.00;63.40;;;22.16;45.62;93933.47;5044315;28;20656;-78
2022/11/04 06:30:04;;;;;;;0.40;0.40;;;22.00;63.40;;;22.16;45.79;93928.13;5060787;28;20298;-78
2022/11/04 06:32:32;;;;;;;0.45;0.45;;;22.00;63.40;;;22.17;45.82;93928.94;5077537;28;20288;-78
2022/11/04 06:34:59;;;;;;;0.40;0.40;;;22.00;63.40;;;22.15;45.92;93939.09;5077511;28;20293;-78
2022/11/04 06:37:27;;;;;;;0.40;0.40;;;22.00;63.30;;;22.15;45.87;93939.88;5077317;28;20213;-78
2022/11/04 06:39:54;;;;;;;0.40;0.40;;;22.00;63.40;;;22.16;45.75;93930.00;5060492;28;20205;-78
2022/11/04 06:42:22;;;;;;;0.40;0.40;;;22.00;63.40;;;22.16;45.65;93938.03;5077306;28;20194;-78
2022/11/04 06:44:49;;;;;;;0.40;0.40;;;22.00;63.30;;;22.15;45.87;93936.44;5081375;28;20280;-78
2022/11/04 06:47:17;;;;;;;0.40;0.40;;;22.00;63.40;;;22.13;45.78;93928.72;5081140;28;20220;-78
2022/11/04 06:49:50;;;;;;;0.50;0.50;;;22.00;63.40;;;22.13;45.89;93923.38;5082529;28;20181;-78
2022/11/04 06:52:18;;;;;;;0.40;0.40;;;22.00;63.30;;;22.11;45.70;93922.09;5047888;28;20193;-78
2022/11/04 06:54:46;;;;;;;0.40;0.40;;;22.00;63.30;;;22.13;46.05;93930.56;5081211;28;20246;-78
2022/11/04 06:57:14;;;;;;;0.50;0.50;;;21.90;63.20;;;22.14;45.64;93922.31;5081327;28;20195;-78
2022/11/04 06:59:41;;;;;;;0.40;0.40;;;21.90;63.20;;;22.13;46.01;93928.72;5081061;28;20587;-78
2022/11/04 07:02:12;;;;;;;0.40;0.40;;;21.90;63.30;;;22.12;45.81;93927.13;5080887;28;20201;-78
2022/11/04 07:04:39;;;;;;;0.40;0.40;;;21.90;63.30;;;22.04;45.65;93917.88;5080743;28;20555;-78
2022/11/04 07:07:07;;;;;;;0.50;0.50;;;21.90;63.30;;;22.13;46.07;93927.91;5080463;28;20535;-78
2022/11/04 07:09:34;;;;;;;0.40;0.40;;;21.90;63.30;;;22.09;45.92;93921.56;5080924;28;20284;-78
2022/11/04 07:12:01;;;;;;;0.40;0.40;;;21.90;63.30;;;22.08;45.64;93931.44;5072561;28;20196;-78
2022/11/04 07:14:29;;;;;;;0.40;0.40;;;21.90;63.30;;;22.07;45.62;93932.53;5080743;28;20269;-78
2022/11/04 07:16:56;;;;;;;0.40;0.40;;;21.90;63.30;;;22.12;45.98;93940.47;5080909;28;20692;-78
2022/11/04 07:19:23;;;;;;;0.40;0.40;;;21.90;63.30;;;22.12;45.86;93945.00;5080707;28;20194;-78
2022/11/04 07:21:50;;;;;;;0.40;0.40;;;21.90;63.30;;;22.01;46.05;93928.34;5080418;28;20234;-78
2022/11/04 07:24:17;;;;;;;0.40;0.40;;;21.90;63.30;;;22.08;45.67;93942.13;5080288;28;20662;-78
2022/11/04 07:26:44;;;;;;;0.40;0.40;;;21.90;63.30;;;22.10;45.94;93941.84;5080271;28;20224;-78
2022/11/04 07:29:11;;;;;;;0.40;0.40;;;21.90;63.40;;;22.03;45.95;93932.31;5080366;28;20201;-78
2022/11/04 07:31:39;;;;;;;0.32;0.32;;;21.90;63.40;;;22.13;45.86;93942.06;5080068;28;20516;-78
2022/11/04 07:34:06;;;;;;;0.40;0.40;;;21.90;63.40;;;22.09;45.89;93943.72;5063607;28;20206;-78
2022/11/04 07:36:33;;;;;;;0.40;0.40;;;21.90;63.40;;;22.09;45.67;93932.25;5063777;28;20190;-78
2022/11/04 07:39:01;;;;;;;0.50;0.50;;;21.90;63.40;;;22.11;45.63;93940.78;5063638;28;20237;-78
2022/11/04 07:41:28;;;;;;;0.40;0.40;;;21.90;63.30;;;22.11;45.57;93930.09;5079848;28;20216;-78
2022/11/04 07:43:57;;;;;;;0.45;0.45;;;21.90;63.30;;;22.12;45.70;93926.31;5098058;28;20193;-78
2022/11/04 07:46:25;;;;;;;0.50;0.50;;;21.90;63.30;;;22.11;45.69;93925.53;5096863;28;20221;-78
2022/11/04 07:48:56;;;;;;;0.40;0.40;;;21.90;63.30;;;22.04;45.87;93915.19;5097061;28;20214;-78
2022/11/04 07:51:24;;;;;;;0.40;0.40;;;21.90;63.30;;;22.05;45.53;93921.34;5046982;28;20220;-78
2022/11/04 07:53:54;;;;;;;0.45;0.45;;;21.90;63.30;;;22.11;45.99;93927.41;5096747;28;20198;-78
2022/11/04 07:56:22;;;;;;;0.50;0.50;;;21.90;63.30;;;22.05;45.80;93918.69;5062833;28;20217;-78
2022/11/04 07:58:51;;;;;;;0.40;0.40;;;21.90;63.30;;;22.07;45.84;93927.97;5063600;28;20205;-78
2022/11/04 08:01:24;;;;;;;0.30;0.30;;;21.90;63.30;;;22.10;45.65;93936.50;5063043;28;20195;-77
2022/11/04 08:03:51;;;;;;;0.40;0.40;;;21.90;63.30;;;22.09;45.82;93935.69;5080332;28;20597;-78
2022/11/04 08:06:20;;;;;;;0.40;0.40;;;21.90;63.30;;;22.10;45.88;93928.50;5079818;28;20299;-77
2022/11/04 08:08:47;;;;;;;0.40;0.40;;;21.90;63.30;;;22.00;45.91;93908.06;5079790;28;20232;-77
2022/11/04 08:11:18;;;;;;;0.40;0.40;;;21.90;63.30;;;22.10;45.63;93928.50;5063096;28;20272;-77
2022/11/04 08:13:46;;;;;;;0.40;0.40;;;21.90;63.30;;;22.04;45.80;93909.06;5079521;28;20201;-77
2022/11/04 08:16:20;;;;;;;0.40;0.40;;;21.90;63.30;;;22.10;45.59;93917.81;5096288;28;20281;-77
2022/11/04 08:18:51;;;;;;;0.50;0.50;;;21.90;63.30;;;22.05;45.83;93914.13;5095992;28;20193;-77
2022/11/04 08:21:19;;;;;;;0.50;0.50;;;21.90;63.30;;;22.10;45.82;93904.47;5079006;28;20247;-77
2022/11/04 08:23:47;;;;;;;0.40;0.40;;;21.90;63.30;;;22.02;46.00;93901.38;5096207;28;20608;-78
2022/11/04 08:26:17;;;;;;;0.40;0.40;;;21.90;63.30;;;22.04;45.71;93901.06;5079247;28;20644;-78
2022/11/04 08:28:45;;;;;;;0.40;0.40;;;21.90;63.30;;;22.10;45.90;93901.78;5079537;28;20596;-78
2022/11/04 08:31:18;;;;;;;0.50;0.50;;;21.90;63.30;;;22.09;45.53;93905.53;5096233;28;20203;-78
2022/11/04 08:33:46;;;;;;;0.38;0.38;;;21.90;63.30;;;22.02;45.76;93896.03;5079670;28;20519;-78
2022/11/04 08:36:21;;;;;;;0.50;0.50;;;21.90;63.30;;;22.03;45.99;93900.28;5078980;28;20212;-78
2022/11/04 08:38:49;;;;;;;0.50;0.50;;;21.90;63.20;;;22.10;45.94;93907.13;5079119;28;20232;-78
2022/11/04 08:41:28;;;;;;;0.50;0.50;;;21.90;63.30;;;22.07;45.71;93905.84;5079017;28;20520;-77
2022/11/04 08:43:59;;;;;;;0.40;0.40;;;21.90;63.30;;;22.09;45.67;93906.31;5079095;28;20181;-77
2022/11/04 08:46:34;;;;;;;0.50;0.50;;;21.90;63.20;;;22.06;45.90;93894.34;5079000;28;20608;-77
2022/11/04 08:49:03;;;;;;;0.43;0.43;;;21.90;63.20;;;22.08;45.51;93894.06;5062594;28;20515;-77
2022/11/04 08:51:41;;;;;;;0.40;0.40;;;21.90;63.30;;;22.07;45.75;93885.25;5063428;28;20243;-78
2022/11/04 08:54:08;;;;;;;0.40;0.40;;;21.90;63.20;;;22.06;45.93;93881.00;5078890;28;20212;-78
2022/11/04 08:56:49;;;;;;;0.40;0.40;;;21.90;64.20;;;22.07;45.86;93876.47;5078692;28;20202;-78
2022/11/04 08:59:18;;;;;;;0.50;0.50;;;21.90;63.20;;;22.02;45.65;93868.50;5095657;28;20209;-78
2022/11/04 09:01:46;;;;;;;0.50;0.50;;;21.90;63.30;;;22.02;45.79;93876.53;5061806;28;20539;-78
2022/11/04 09:04:13;;;;;;;0.50;0.50;;;21.90;63.20;;;22.08;45.71;93891.38;5062385;28;20611;-78
2022/11/04 09:06:44;;;;;;;0.40;0.40;;;21.90;63.30;;;22.03;45.80;93886.13;5045367;28;20273;-78
2022/11/04 09:09:15;;;;;;;0.40;0.40;;;21.90;63.30;;;22.07;45.68;93871.91;5078916;28;20194;-78
2022/11/04 09:11:44;;;;;;;0.40;0.40;;;21.90;63.30;;;22.08;45.89;93878.03;5078552;28;20260;-78
2022/11/04 09:14:12;;;;;;;0.30;0.30;;;21.90;63.30;;;22.06;45.85;93867.66;5078509;28;20667;-78
2022/11/04 09:16:41;;;;;;;0.40;0.40;;;21.90;63.30;;;21.96;45.95;93854.47;5078215;28;20204;-77
2022/11/04 09:19:09;;;;;;;0.50;0.50;;;21.90;63.30;;;22.03;46.06;93864.75;5078203;28;20297;-78
2022/11/04 09:21:36;;;;;;;0.35;0.35;;;21.90;63.20;;;22.07;45.77;93873.78;5061714;28;20229;-78
2022/11/04 09:24:04;;;;;;;0.40;0.40;;;21.90;63.30;;;22.05;45.78;93867.94;5061561;28;20653;-78
2022/11/04 09:26:32;;;;;;;0.40;0.40;;;21.90;63.20;;;22.04;45.55;93859.13;5061474;28;20202;-78
2022/11/04 09:28:59;;;;;;;0.60;0.60;;;21.90;63.30;;;22.07;45.80;93866.56;5087486;28;20186;-78
2022/11/04 09:31:29;;;;;;;0.40;0.40;;;21.80;63.20;;;22.07;45.44;93858.56;5078084;28;20247;-78
2022/11/04 09:33:57;;;;;;;0.40;0.40;;;21.90;63.30;;;22.04;45.79;93850.34;5078181;28;20204;-78
2022/11/04 09:36:25;;;;;;;0.40;0.40;;;21.90;63.20;;;22.07;45.80;93855.88;5077789;28;20306;-78
2022/11/04 09:38:52;;;;;;;0.40;0.40;;;21.90;63.30;;;22.01;45.76;93843.69;5077911;28;20254;-77
2022/11/04 09:41:41;;;;;;;0.40;0.40;;;21.90;63.20;;;22.05;45.73;93842.03;5061057;28;20193;-77
2022/11/04 09:44:22;;;;;;;0.40;0.40;;;21.90;63.20;;;22.06;45.96;93842.84;5077776;28;20301;-77
2022/11/04 09:46:56;;;;;;;0.50;0.50;;;21.90;63.20;;;22.05;45.88;93835.91;5095387;28;20308;-77
2022/11/04 09:49:26;;;;;;;0.40;0.40;;;21.90;63.20;;;22.06;45.87;93829.47;5077984;28;20606;-77
2022/11/04 09:51:56;;;;;;;0.30;0.30;;;21.90;63.30;;;22.00;45.89;93828.75;5060854;28;20217;-77
2022/11/04 09:54:37;;;;;;;0.47;0.47;;;21.90;63.20;;;22.04;46.00;93831.63;5044557;28;20198;-78
2022/11/04 09:57:18;;;;;;;0.40;0.40;;;21.90;63.20;;;21.94;45.84;93810.44;5061998;28;20625;-78
2022/11/04 09:59:46;;;;;;;0.50;0.50;;;21.90;63.20;;;21.99;45.75;93824.50;5044691;28;20288;-78
2022/11/04 10:02:31;;;;;;;0.40;0.40;;;21.90;63.20;;;21.98;45.72;93825.56;5077630;28;20638;-78
2022/11/04 10:05:41;;;;;;;0.40;0.40;;;21.90;63.20;;;22.02;45.68;93833.78;5078047;28;20184;-78
2022/11/04 10:08:44;;;;;;;0.50;0.50;;;21.90;63.20;;;22.00;46.10;93827.97;5094246;28;20205;-78
2022/11/04 10:11:20;;;;;;;0.45;0.45;;;21.90;63.20;;;21.96;45.76;93818.94;5077912;28;20200;-78
2022/11/04 10:13:59;;;;;;;0.40;0.40;;;21.90;63.20;;;21.99;45.74;93821.03;5094138;28;20205;-78
2022/11/04 10:16:48;;;;;;;0.40;0.40;;;21.90;63.30;;;21.99;45.45;93818.38;5060940;28;20285;-78
2022/11/04 10:19:56;;;;;;;0.40;0.40;;;21.90;63.20;;;21.97;45.79;93821.34;5080346;28;20222;-78
2022/11/04 10:22:42;;;;;;;0.40;0.40;;;21.80;63.20;;;21.94;45.68;93819.25;5098462;28;20229;-78
2022/11/04 10:25:15;;;;;;;0.40;0.40;;;21.80;63.20;;;21.97;45.94;93826.69;5099569;28;20259;-78
2022/11/04 10:27:46;;;;;;;0.30;0.30;;;21.80;63.20;;;21.92;45.69;93813.38;5098590;28;20217;-78
2022/11/04 10:30:21;;;;;;;0.40;0.40;;;21.80;63.20;;;21.99;45.60;93823.72;5098433;28;20170;-78
2022/11/04 10:33:20;;;;;;;0.40;0.40;;;21.80;63.30;;;21.98;45.70;93824.78;5065093;28;20181;-77
2022/11/04 10:35:56;;;;;;;0.40;0.40;;;21.80;63.30;;;21.97;45.77;93824.00;5097968;28;20697;-77
2022/11/04 10:38:38;;;;;;;0.30;0.30;;;21.80;63.30;;;21.91;45.82;93809.16;5081700;28;20214;-77
2022/11/04 10:41:22;;;;;;;0.40;0.40;;;21.80;63.20;;;21.97;45.90;93810.66;5065376;28;20231;-78
2022/11/04 10:43:58;;;;;;;0.50;0.50;;;21.80;63.20;;;21.95;45.74;93796.00;5098220;28;20212;-78
2022/11/04 10:47:20;;;;;;;0.40;0.40;;;21.80;63.20;;;21.97;46.01;93799.97;5081135;28;20270;-78
2022/11/04 10:49:56;;;;;;;0.32;0.32;;;21.80;63.30;;;21.96;45.54;93787.72;5055239;28;20212;-77
2022/11/04 10:52:44;;;;;;;0.40;0.40;;;21.80;63.30;;;21.97;45.82;93785.81;5081123;28;20211;-78
2022/11/04 10:55:34;;;;;;;0.40;0.40;;;21.80;63.30;;;21.92;45.52;93784.03;5081635;28;20268;-77
2022/11/04 10:58:02;;;;;;;0.40;0.40;;;21.80;63.20;;;21.97;45.52;93778.63;5064605;28;20588;-77
2022/11/04 11:00:39;;;;;;;0.40;0.40;;;21.80;64.20;;;22.00;45.77;93780.69;5080951;28;20280;-77
2022/11/04 11:03:36;;;;;;;0.43;0.43;;;21.80;63.20;;;21.98;45.62;93777.50;5097601;28;20254;-78
2022/11/04 11:06:24;;;;;;;0.40;0.40;;;21.80;63.20;;;21.97;45.79;93775.16;5081581;28;20208;-77
2022/11/04 11:08:56;;;;;;;0.40;0.40;;;21.80;63.20;;;21.98;45.88;93761.50;5081037;28;20655;-77
2022/11/04 11:11:47;;;;;;;0.40;0.40;;;21.80;63.20;;;21.95;45.47;93766.63;5097593;28;20188;-77
2022/11/04 11:14:31;;;;;;;0.40;0.40;;;21.80;63.20;;;21.97;45.51;93770.63;5064662;28;20196;-77
2022/11/04 11:17:19;;;;;;;0.40;0.40;;;21.80;63.20;;;21.96;45.82;93771.69;5064034;28;20189;-78
2022/11/04 11:19:58;;;;;;;0.40;0.40;;;21.80;63.20;;;21.93;45.94;93760.81;5098731;28;20208;-78